createdAt,value
2023-03-13T00:01:12.412Z,60.25
2023-03-13T00:03:39.462Z,60.40
2023-03-13T00:06:06.654Z,60.44
2023-03-13T00:08:33.655Z,60.33
2023-03-13T00:11:05.032Z,60.33
2023-03-13T00:13:31.815Z,60.53
2023-03-13T00:16:10.165Z,60.50
2023-03-13T00:18:37.131Z,60.67
2023-03-13T00:21:09.202Z,60.42
2023-03-13T00:23:38.189Z,60.63
2023-03-13T00:26:08.396Z,60.49
2023-03-13T00:28:37.073Z,60.56
2023-03-13T00:31:15.843Z,60.46
2023-03-13T00:33:45.251Z,60.64
2023-03-13T00:36:19.057Z,60.62
2023-03-13T00:38:46.304Z,60.53
2023-03-13T00:41:18.181Z,60.78
2023-03-13T00:43:45.999Z,60.75
2023-03-13T00:46:14.813Z,60.64
2023-03-13T00:48:41.931Z,60.62
2023-03-13T00:51:09.146Z,60.82
2023-03-13T00:53:36.205Z,60.65
2023-03-13T00:56:06.136Z,60.80
2023-03-13T00:58:35.417Z,61.13
2023-03-13T01:01:13.680Z,60.80
2023-03-13T01:03:42.747Z,60.94
2023-03-13T01:06:12.940Z,60.94
2023-03-13T01:08:40.006Z,61.02
2023-03-13T01:11:16.699Z,61.06
2023-03-13T01:13:44.242Z,60.93
2023-03-13T01:16:11.232Z,61.15
2023-03-13T01:18:40.020Z,61.11
2023-03-13T01:21:07.422Z,60.92
2023-03-13T01:23:34.689Z,61.00
2023-03-13T01:26:04.374Z,61.20
2023-03-13T01:28:31.444Z,60.99
2023-03-13T01:30:58.318Z,61.27
2023-03-13T01:33:25.516Z,61.31
2023-03-13T01:35:52.578Z,61.19
2023-03-13T01:38:19.327Z,61.47
2023-03-13T01:40:49.696Z,61.31
2023-03-13T01:43:26.997Z,61.54
2023-03-13T01:46:08.219Z,61.45
2023-03-13T01:49:06.473Z,61.50
2023-03-13T01:51:47.788Z,61.92
2023-03-13T01:54:20.245Z,61.48
2023-03-13T01:56:53.334Z,61.58
2023-03-13T01:59:27.181Z,61.63
2023-03-13T02:01:57.541Z,61.71
2023-03-13T02:04:28.002Z,61.54
2023-03-13T02:06:58.286Z,61.51
2023-03-13T02:09:30.255Z,61.58
2023-03-13T02:12:15.484Z,61.59
2023-03-13T02:14:45.621Z,61.77
2023-03-13T02:17:13.304Z,61.75
2023-03-13T02:19:48.640Z,61.58
2023-03-13T02:22:21.381Z,61.72
2023-03-13T02:25:10.244Z,61.81
2023-03-13T02:27:37.266Z,61.84
2023-03-13T02:30:06.203Z,62.06
2023-03-13T02:32:33.367Z,61.95
2023-03-13T02:35:13.726Z,61.69
2023-03-13T02:37:44.657Z,61.87
2023-03-13T02:40:22.186Z,61.88
2023-03-13T02:42:50.283Z,61.90
2023-03-13T02:45:18.387Z,61.96
2023-03-13T02:47:45.257Z,62.09
2023-03-13T02:50:13.643Z,61.90
2023-03-13T02:52:50.678Z,61.86
2023-03-13T02:55:39.240Z,61.81
2023-03-13T02:58:06.333Z,61.90
2023-03-13T03:00:36.118Z,61.98
2023-03-13T03:03:02.851Z,62.11
2023-03-13T03:05:29.849Z,62.22
2023-03-13T03:07:57.776Z,62.11
2023-03-13T03:10:25.048Z,62.29
2023-03-13T03:12:52.210Z,62.16
2023-03-13T03:15:19.056Z,62.28
2023-03-13T03:17:47.780Z,62.27
2023-03-13T03:20:14.553Z,62.49
2023-03-13T03:22:43.235Z,62.24
2023-03-13T03:25:10.544Z,62.31
2023-03-13T03:27:37.375Z,62.38
2023-03-13T03:30:22.749Z,62.50
2023-03-13T03:32:51.607Z,62.62
2023-03-13T03:35:20.864Z,62.52
2023-03-13T03:37:47.767Z,62.35
2023-03-13T03:40:15.362Z,62.42
2023-03-13T03:42:42.976Z,62.39
2023-03-13T03:45:10.525Z,62.50
2023-03-13T03:47:37.110Z,62.67
2023-03-13T03:50:04.497Z,62.59
2023-03-13T03:52:39.082Z,62.48
2023-03-13T03:55:06.244Z,62.65
2023-03-13T03:57:33.207Z,62.71
2023-03-13T04:00:00.512Z,62.62
2023-03-13T04:02:27.880Z,62.79
2023-03-13T04:04:54.801Z,62.93
2023-03-13T04:07:26.769Z,62.99
2023-03-13T04:09:53.769Z,63.19
2023-03-13T04:12:26.902Z,63.11
2023-03-13T04:14:55.472Z,63.19
2023-03-13T04:17:22.324Z,63.43
2023-03-13T04:19:49.147Z,63.38
2023-03-13T04:22:16.002Z,63.36
2023-03-13T04:24:48.236Z,63.16
2023-03-13T04:27:15.110Z,63.35
2023-03-13T04:29:43.258Z,63.53
2023-03-13T04:32:23.453Z,63.52
2023-03-13T04:35:08.437Z,63.40
2023-03-13T04:37:53.907Z,63.32
2023-03-13T04:40:39.866Z,63.26
2023-03-13T04:43:24.543Z,63.30
2023-03-13T04:46:11.604Z,63.33
2023-03-13T04:48:38.392Z,63.32
2023-03-13T04:51:23.533Z,63.25
2023-03-13T04:54:13.016Z,63.19
2023-03-13T04:56:57.616Z,63.29
2023-03-13T04:59:47.556Z,63.19
2023-03-13T05:02:23.141Z,63.32
2023-03-13T05:05:08.958Z,63.03
2023-03-13T05:07:56.124Z,63.20
2023-03-13T05:10:43.589Z,63.29
2023-03-13T05:13:25.559Z,63.10
2023-03-13T05:15:52.340Z,63.12
2023-03-13T05:18:54.328Z,63.14
2023-03-13T05:21:50.185Z,63.23
2023-03-13T05:24:37.209Z,63.26
2023-03-13T05:27:36.432Z,63.24
2023-03-13T05:30:25.286Z,63.59
2023-03-13T05:33:12.486Z,63.42
2023-03-13T05:35:47.451Z,63.51
2023-03-13T06:04:09.883Z,63.68
2023-03-13T06:06:38.958Z,63.19
2023-03-13T06:11:47.004Z,63.30
2023-03-13T06:14:13.721Z,63.57
2023-03-13T06:16:46.728Z,63.55
2023-03-13T06:19:24.516Z,63.59
2023-03-13T06:21:52.098Z,63.74
2023-03-13T06:24:18.823Z,63.80
2023-03-13T06:26:49.581Z,63.73
2023-03-13T06:29:17.498Z,63.71
2023-03-13T06:31:44.416Z,63.51
2023-03-13T06:34:12.581Z,63.91
2023-03-13T06:36:39.346Z,63.87
2023-03-13T06:39:06.181Z,63.51
2023-03-13T06:41:33.324Z,63.68
2023-03-13T06:44:00.188Z,63.62
2023-03-13T06:46:27.284Z,63.77
2023-03-13T06:48:54.012Z,63.71
2023-03-13T06:51:22.374Z,63.71
2023-03-13T06:53:49.341Z,63.72
2023-03-13T06:56:16.225Z,63.71
2023-03-13T06:58:43.100Z,63.47
2023-03-13T07:01:11.965Z,63.46
2023-03-13T07:03:39.206Z,63.56
2023-03-13T07:06:06.234Z,63.61
2023-03-13T07:08:33.926Z,63.51
2023-03-13T07:11:06.196Z,63.72
2023-03-13T07:13:32.916Z,63.53
2023-03-13T07:16:01.488Z,63.34
2023-03-13T07:18:28.419Z,63.49
2023-03-13T07:20:56.651Z,62.83
2023-03-13T07:23:24.867Z,62.04
2023-03-13T07:26:04.092Z,61.69
2023-03-13T07:28:31.691Z,61.64
2023-03-13T07:31:16.537Z,61.48
2023-03-13T07:33:44.871Z,61.25
2023-03-13T07:36:13.232Z,61.45
2023-03-13T07:38:40.110Z,61.47
2023-03-13T07:41:07.157Z,62.05
2023-03-13T07:43:33.993Z,62.00
2023-03-13T07:46:03.706Z,62.28
2023-03-13T07:48:41.401Z,62.27
2023-03-13T07:51:12.476Z,62.28
2023-03-13T07:53:39.423Z,62.19
2023-03-13T07:56:10.155Z,62.16
2023-03-13T07:58:38.674Z,62.27
2023-03-13T08:01:11.164Z,62.20
2023-03-13T08:03:38.343Z,62.19
2023-03-13T08:06:11.519Z,62.34
2023-03-13T08:08:38.955Z,62.20
2023-03-13T08:11:14.095Z,61.88
2023-03-13T08:13:41.596Z,61.28
2023-03-13T08:16:11.567Z,61.14
2023-03-13T08:18:40.736Z,61.14
2023-03-13T08:21:18.595Z,61.24
2023-03-13T08:23:45.766Z,61.08
2023-03-13T08:26:15.612Z,60.79
2023-03-13T08:28:44.369Z,60.68
2023-03-13T08:31:19.781Z,61.15
2023-03-13T08:33:48.092Z,60.95
2023-03-13T08:36:23.092Z,61.35
2023-03-13T08:38:50.634Z,61.29
2023-03-13T08:41:22.893Z,61.19
2023-03-13T08:43:52.616Z,61.34
2023-03-13T08:46:20.152Z,61.31
2023-03-13T08:48:55.119Z,61.58
2023-03-13T08:51:24.423Z,61.63
2023-03-13T08:53:52.172Z,61.73
2023-03-13T08:56:21.695Z,61.96
2023-03-13T08:58:52.107Z,61.93
2023-03-13T09:01:19.966Z,62.08
2023-03-13T09:03:47.005Z,62.02
2023-03-13T09:06:14.058Z,61.99
2023-03-13T09:08:41.807Z,62.00
2023-03-13T09:11:11.279Z,61.93
2023-03-13T09:13:42.450Z,61.97
2023-03-13T09:16:29.258Z,62.18
2023-03-13T09:18:57.253Z,61.95
2023-03-13T09:21:30.198Z,62.09
2023-03-13T09:23:57.979Z,62.18
2023-03-13T09:26:25.918Z,61.98
2023-03-13T09:28:53.184Z,62.14
2023-03-13T09:31:23.206Z,62.04
2023-03-13T09:33:50.893Z,61.61
2023-03-13T09:36:21.839Z,61.29
2023-03-13T09:38:51.016Z,61.44
2023-03-13T09:41:18.114Z,61.46
2023-03-13T09:43:50.828Z,61.67
2023-03-13T09:46:26.640Z,61.95
2023-03-13T09:48:59.934Z,61.94
2023-03-13T09:51:37.118Z,61.85
2023-03-13T09:54:08.478Z,61.99
2023-03-13T09:56:47.965Z,61.81
2023-03-13T09:59:24.598Z,61.99
2023-03-13T10:01:54.513Z,62.09
2023-03-13T10:04:44.297Z,61.92
2023-03-13T10:07:12.171Z,61.74
2023-03-13T10:09:40.914Z,61.72
2023-03-13T10:12:17.308Z,61.77
2023-03-13T10:15:09.109Z,61.77
2023-03-13T10:17:38.409Z,61.83
2023-03-13T10:20:10.831Z,61.91
2023-03-13T10:22:38.625Z,61.85
2023-03-13T10:25:30.437Z,62.03
2023-03-13T10:27:58.074Z,61.81
2023-03-13T10:30:25.994Z,61.98
2023-03-13T10:33:07.654Z,62.02
2023-03-13T10:35:43.095Z,61.85
2023-03-13T10:38:14.023Z,61.98
2023-03-13T10:40:42.917Z,62.04
2023-03-13T10:43:22.193Z,61.95
2023-03-13T10:45:49.052Z,61.90
2023-03-13T10:48:19.940Z,61.90
2023-03-13T10:50:49.443Z,61.68
2023-03-13T10:53:31.449Z,61.70
2023-03-13T10:56:10.328Z,61.82
2023-03-13T10:58:46.040Z,61.83
2023-03-13T11:01:22.957Z,62.01
2023-03-13T11:03:51.999Z,61.84
2023-03-13T11:06:50.626Z,61.65
2023-03-13T11:09:17.968Z,61.83
2023-03-13T11:11:48.526Z,61.72
2023-03-13T11:14:21.679Z,60.83
2023-03-13T11:16:51.544Z,60.77
2023-03-13T11:19:30.040Z,60.95
2023-03-13T11:22:13.947Z,61.31
2023-03-13T11:25:03.577Z,61.51
2023-03-13T11:27:58.164Z,61.70
2023-03-13T11:30:51.069Z,61.44
2023-03-13T11:33:47.720Z,61.64
2023-03-13T11:36:29.099Z,61.48
2023-03-13T11:39:00.255Z,61.57
2023-03-13T11:41:29.707Z,61.62
2023-03-13T11:44:23.154Z,61.62
2023-03-13T11:46:55.782Z,61.92
2023-03-13T11:50:09.076Z,61.56
2023-03-13T11:52:43.806Z,61.96
2023-03-13T11:55:21.564Z,61.70
2023-03-13T11:58:00.106Z,61.66
2023-03-13T12:00:46.269Z,61.67
2023-03-13T12:03:16.809Z,61.83
2023-03-13T12:05:59.162Z,61.44
2023-03-13T12:08:41.594Z,61.58
2023-03-13T12:11:29.026Z,61.58
2023-03-13T12:14:02.921Z,61.74
2023-03-13T12:16:44.879Z,61.90
2023-03-13T12:19:17.851Z,61.40
2023-03-13T12:21:53.262Z,61.17
2023-03-13T12:24:36.598Z,61.05
2023-03-13T12:27:18.398Z,61.31
2023-03-13T12:29:45.102Z,61.40
2023-03-13T12:32:24.821Z,61.64
2023-03-13T12:35:03.116Z,61.39
2023-03-13T12:37:49.675Z,61.31
2023-03-13T12:40:32.294Z,61.11
2023-03-13T12:43:15.983Z,61.51
2023-03-13T12:46:14.999Z,61.29
2023-03-13T12:49:00.648Z,61.61
2023-03-13T12:51:37.493Z,61.68
2023-03-13T12:54:21.770Z,61.29
2023-03-13T12:56:57.289Z,61.43
2023-03-13T12:59:39.963Z,61.53
2023-03-13T13:02:20.457Z,61.32
2023-03-13T13:04:49.690Z,61.72
2023-03-13T13:07:38.119Z,60.77
2023-03-13T13:10:10.947Z,61.02
2023-03-13T13:12:45.660Z,60.77
2023-03-13T13:15:28.967Z,61.00
2023-03-13T13:18:25.656Z,60.90
2023-03-13T13:21:07.308Z,60.97
2023-03-13T13:23:39.375Z,61.11
2023-03-13T13:26:26.678Z,61.25
2023-03-13T13:28:54.603Z,61.40
2023-03-13T13:31:50.894Z,61.43
2023-03-13T13:34:32.281Z,61.26
2023-03-13T13:36:59.736Z,61.39
2023-03-13T13:39:48.125Z,61.48
2023-03-13T13:42:29.880Z,61.42
2023-03-13T13:45:22.554Z,61.65
2023-03-13T13:47:50.636Z,61.46
2023-03-13T13:50:25.923Z,61.57
2023-03-13T13:52:53.603Z,61.73
2023-03-13T13:55:38.781Z,61.77
2023-03-13T13:58:12.074Z,61.88
2023-03-13T14:00:47.403Z,61.85
2023-03-13T14:03:24.430Z,61.71
2023-03-13T14:06:30.683Z,61.80
2023-03-13T14:09:14.661Z,61.97
2023-03-13T14:11:41.351Z,61.83
2023-03-13T14:14:34.657Z,61.74
2023-03-13T14:17:01.511Z,61.91
2023-03-13T14:19:28.648Z,61.95
2023-03-13T14:22:04.742Z,61.99
2023-03-13T14:24:31.700Z,62.01
2023-03-13T14:26:58.380Z,62.12
2023-03-13T14:29:26.449Z,62.06
2023-03-13T14:31:53.423Z,61.98
2023-03-13T14:34:21.067Z,62.09
2023-03-13T14:36:49.171Z,62.81
2023-03-13T14:39:31.135Z,61.79
2023-03-13T14:42:13.665Z,61.41
2023-03-13T14:44:42.918Z,61.08
2023-03-13T14:47:19.075Z,61.11
2023-03-13T14:49:47.355Z,60.94
2023-03-13T14:52:20.681Z,61.05
2023-03-13T14:54:55.218Z,60.42
2023-03-13T14:57:27.066Z,59.96
2023-03-13T15:00:29.591Z,59.72
2023-03-13T15:03:16.494Z,59.26
2023-03-13T15:05:47.683Z,58.85
2023-03-13T15:08:22.895Z,58.99
2023-03-13T15:10:53.789Z,58.87
2023-03-13T15:13:25.297Z,58.63
2023-03-13T15:15:53.554Z,58.27
2023-03-13T15:18:22.335Z,58.13
2023-03-13T15:20:57.531Z,58.01
2023-03-13T15:23:24.905Z,58.17
2023-03-13T15:25:51.674Z,58.01
2023-03-13T15:28:21.350Z,57.81
2023-03-13T15:30:51.214Z,57.36
2023-03-13T15:33:20.575Z,57.44
2023-03-13T15:35:47.593Z,57.35
2023-03-13T15:38:17.377Z,57.22
2023-03-13T15:40:45.118Z,57.27
2023-03-13T15:43:13.206Z,56.97
2023-03-13T15:45:41.998Z,57.15
2023-03-13T15:48:18.298Z,56.91
2023-03-13T15:50:46.590Z,56.74
2023-03-13T15:53:19.454Z,56.88
2023-03-13T15:55:50.441Z,56.83
2023-03-13T15:58:17.926Z,56.71
2023-03-13T16:00:49.144Z,56.74
2023-03-13T16:03:22.002Z,56.81
2023-03-13T16:05:49.211Z,56.71
2023-03-13T16:08:34.343Z,56.73
2023-03-13T16:11:02.213Z,56.60
2023-03-13T16:13:28.853Z,56.57
2023-03-13T16:15:56.683Z,56.68
2023-03-13T16:18:24.915Z,56.49
2023-03-13T16:20:53.115Z,56.41
2023-03-13T16:23:19.863Z,56.60
2023-03-13T16:25:48.623Z,56.70
2023-03-13T16:28:16.027Z,56.45
2023-03-13T16:30:47.786Z,56.56
2023-03-13T16:33:14.936Z,56.64
2023-03-13T16:35:42.122Z,56.58
2023-03-13T16:38:12.126Z,56.61
2023-03-13T16:40:38.944Z,56.70
2023-03-13T16:43:05.810Z,56.33
2023-03-13T16:45:32.425Z,56.30
2023-03-13T16:47:59.160Z,56.36
2023-03-13T16:50:25.811Z,56.31
2023-03-13T16:52:54.101Z,56.35
2023-03-13T16:55:24.734Z,56.14
2023-03-13T16:57:52.453Z,56.10
2023-03-13T17:00:21.521Z,56.17
2023-03-13T17:02:48.685Z,56.28
2023-03-13T17:05:16.194Z,56.18
2023-03-13T17:07:48.210Z,56.16
2023-03-13T17:10:22.468Z,56.34
2023-03-13T17:12:50.216Z,56.14
2023-03-13T17:15:18.843Z,56.36
2023-03-13T17:17:51.507Z,56.20
2023-03-13T17:20:22.329Z,56.44
2023-03-13T17:22:49.640Z,56.35
2023-03-13T17:25:16.713Z,56.16
2023-03-13T17:27:44.108Z,56.12
2023-03-13T17:30:21.919Z,56.16
2023-03-13T17:32:50.257Z,56.51
2023-03-13T17:35:18.250Z,56.41
2023-03-13T17:37:45.097Z,56.32
2023-03-13T17:40:12.585Z,56.03
2023-03-13T17:42:39.449Z,56.16
2023-03-13T17:45:06.911Z,56.31
2023-03-13T17:47:33.565Z,55.89
2023-03-13T17:50:00.443Z,56.18
2023-03-13T17:52:27.314Z,55.94
2023-03-13T17:54:54.148Z,56.04
2023-03-13T17:57:22.616Z,55.45
2023-03-13T17:59:49.568Z,55.81
2023-03-13T18:02:17.453Z,55.88
2023-03-13T18:04:45.144Z,55.90
2023-03-13T18:07:32.992Z,55.74
2023-03-13T18:09:59.745Z,55.96
2023-03-13T18:12:26.551Z,55.76
2023-03-13T18:14:53.325Z,56.11
2023-03-13T18:17:22.617Z,55.84
2023-03-13T18:19:50.097Z,56.04
2023-03-13T18:22:27.520Z,56.06
2023-03-13T18:24:54.138Z,56.09
2023-03-13T18:27:22.148Z,55.93
2023-03-13T18:29:49.489Z,55.70
2023-03-13T18:32:18.060Z,56.30
2023-03-13T18:34:45.378Z,56.01
2023-03-13T18:37:30.452Z,55.94
2023-03-13T18:39:58.136Z,56.05
2023-03-13T18:42:25.326Z,56.12
2023-03-13T18:44:52.918Z,56.17
2023-03-13T18:47:22.160Z,56.08
2023-03-13T18:49:49.956Z,55.94
2023-03-13T18:52:17.403Z,55.96
2023-03-13T18:54:44.982Z,56.06
2023-03-13T18:57:20.053Z,56.03
2023-03-13T18:59:46.970Z,56.14
2023-03-13T19:02:16.893Z,55.76
2023-03-13T19:04:44.702Z,55.81
2023-03-13T19:07:18.636Z,55.89
2023-03-13T19:09:47.272Z,55.86
2023-03-13T19:12:15.661Z,55.99
2023-03-13T19:14:43.180Z,55.88
2023-03-13T19:17:23.895Z,55.90
2023-03-13T19:19:50.941Z,55.66
2023-03-13T19:22:17.745Z,55.56
2023-03-13T19:24:44.428Z,56.07
2023-03-13T19:27:14.307Z,55.37
2023-03-13T19:29:40.979Z,55.63
2023-03-13T19:32:12.652Z,55.55
2023-03-13T19:34:39.325Z,55.57
2023-03-13T19:37:06.127Z,55.61
2023-03-13T19:39:34.689Z,55.83
2023-03-13T19:42:01.344Z,55.70
2023-03-13T19:44:28.307Z,55.68
2023-03-13T19:46:55.978Z,55.64
2023-03-13T19:49:23.077Z,55.61
2023-03-13T19:51:49.916Z,55.31
2023-03-13T19:54:16.743Z,55.58
2023-03-13T19:56:45.783Z,55.89
2023-03-13T19:59:18.059Z,55.89
2023-03-13T20:01:45.330Z,55.70
2023-03-13T20:04:12.393Z,55.87
2023-03-13T20:06:40.393Z,56.18
2023-03-13T20:09:09.837Z,55.85
2023-03-13T20:11:36.686Z,56.21
2023-03-13T20:14:03.901Z,56.35
2023-03-13T20:16:33.750Z,56.45
2023-03-13T20:19:01.846Z,56.71
2023-03-13T20:21:31.404Z,56.49
2023-03-13T20:23:59.063Z,56.57
2023-03-13T20:26:28.011Z,56.58
2023-03-13T20:28:55.716Z,57.04
2023-03-13T20:31:28.189Z,56.78
2023-03-13T20:33:56.220Z,56.37
2023-03-13T20:36:24.355Z,56.43
2023-03-13T20:38:51.521Z,56.57
2023-03-13T20:41:24.412Z,56.73
2023-03-13T20:43:52.278Z,56.55
2023-03-13T20:46:19.398Z,56.34
2023-03-13T20:48:46.296Z,56.48
2023-03-13T20:51:13.392Z,56.68
2023-03-13T20:53:41.748Z,56.44
2023-03-13T20:56:10.232Z,56.58
2023-03-13T20:58:37.843Z,57.22
2023-03-13T21:01:05.873Z,57.07
2023-03-13T21:03:35.470Z,56.97
2023-03-13T21:06:18.390Z,57.42
2023-03-13T21:08:46.141Z,57.67
2023-03-13T21:11:13.380Z,57.67
2023-03-13T21:13:40.059Z,58.01
2023-03-13T21:16:07.385Z,58.17
2023-03-13T21:18:34.334Z,58.18
2023-03-13T21:21:09.910Z,58.37
2023-03-13T21:23:38.058Z,58.63
2023-03-13T21:26:05.366Z,58.57
2023-03-13T21:28:32.453Z,58.75
2023-03-13T21:30:59.416Z,58.75
2023-03-13T21:33:26.354Z,58.93
2023-03-13T21:35:53.458Z,58.88
2023-03-13T21:38:20.546Z,59.05
2023-03-13T21:40:47.203Z,59.00
2023-03-13T21:43:13.949Z,59.19
2023-03-13T21:45:40.706Z,59.25
2023-03-13T21:48:07.350Z,59.23
2023-03-13T21:50:34.009Z,59.27
2023-03-13T21:53:00.721Z,59.22
2023-03-13T21:55:27.461Z,59.43
2023-03-13T21:57:54.122Z,59.61
2023-03-13T22:00:21.467Z,59.54
2023-03-13T22:02:48.129Z,59.43
2023-03-13T22:05:15.091Z,59.40
2023-03-13T22:07:41.923Z,59.43
2023-03-13T22:10:09.563Z,59.50
2023-03-13T22:12:37.340Z,59.53
2023-03-13T22:15:04.731Z,59.44
2023-03-13T22:17:31.718Z,59.51
2023-03-13T22:19:58.462Z,59.80
2023-03-13T22:22:25.800Z,60.04
2023-03-13T22:24:54.153Z,60.07
2023-03-13T22:27:23.297Z,60.16
2023-03-13T22:29:50.065Z,60.29
2023-03-13T22:32:17.023Z,60.19
2023-03-13T22:34:47.111Z,60.18
2023-03-13T22:37:14.440Z,60.22
2023-03-13T22:39:41.447Z,60.30
2023-03-13T22:42:08.220Z,60.33
2023-03-13T22:44:35.085Z,60.37
2023-03-13T22:47:01.763Z,60.37
2023-03-13T22:49:28.815Z,60.64
2023-03-13T22:51:55.597Z,60.51
2023-03-13T22:54:22.380Z,60.53
2023-03-13T22:56:49.134Z,60.73
2023-03-13T22:59:15.809Z,60.70
2023-03-13T23:01:42.558Z,60.77
2023-03-13T23:04:09.249Z,60.98
2023-03-13T23:06:36.039Z,60.87
2023-03-13T23:09:03.382Z,60.69
2023-03-13T23:11:30.215Z,60.71
2023-03-13T23:13:56.939Z,60.90
2023-03-13T23:16:23.922Z,60.92
2023-03-13T23:18:50.863Z,61.00
2023-03-13T23:21:18.084Z,60.90
2023-03-13T23:23:45.107Z,60.96
2023-03-13T23:26:14.930Z,61.02
2023-03-13T23:28:42.043Z,61.23
2023-03-13T23:31:11.034Z,60.91
2023-03-13T23:33:38.344Z,60.98
2023-03-13T23:36:10.264Z,60.84
2023-03-13T23:38:37.265Z,60.82
2023-03-13T23:41:12.465Z,60.99
2023-03-13T23:43:39.639Z,60.98
2023-03-13T23:46:15.089Z,60.93
2023-03-13T23:48:41.816Z,61.03
2023-03-13T23:51:08.725Z,61.02
2023-03-13T23:53:39.836Z,61.02
2023-03-13T23:56:07.023Z,61.22
2023-03-13T23:58:34.201Z,61.14
